Terminal Aerodrome Forecast
Issued by NWS

Home | Current Version | Previous Version | Text Only | Print | Product List | Glossary On
Versions: 1 2 3 4 5 6 7 8 9 10 11 12 13 14
000
FTUS46 KSEW 251100
TAFCLM
TAF
KCLM 251124Z 2512/2612 25003KT P6SM OVC045
     FM251400 29003KT P6SM BKN025
     FM251800 33005KT P6SM BKN050
     FM252000 34006KT P6SM SCT250
     FM260600 29005KT P6SM SCT060=

USA.gov is the U.S. government's official web portal to all federal, state and local government web resources and services.